Midway, Arkansas
Current Conditions -  °F | °C
As of 2:53 PM on Thursday 27 Nov 2014 (Local Time) from KBPK Reporting Station
Clear Clear  
Wind Chill: 39°   Ceiling: Unl
Heat Index: 43°   Visibility: 9mi
Dew Point: 22°   Wind: 6mph
Humidity: 43%   Direction: 270°W
Pressure: 30.44"   Gusts: NA
Location:  36.38°N, 92.46°W
Report Text: KBPK 272053Z AUTO 27005KT 9SM CLR 06/M06 A3044 RMK AO2 SLP312 T00611056 56013
Loading
Personal Weather Stations






























Interactive Weather Map New forecast layout! Learn more

10-Day Weather Forecast

Advertisements
Track Severe Weather on mobile